FDX506 EHRD-EDLV
Flight info
| Callsign | FDX506 |
|---|---|
| Flight time | 0h 30m |
| Altitude | 15000 |
| Route | ARNEM T196 TEBRO DCT SOBTU SOBTU1W |
| Aircraft | DH8D/M-SDE2E3FGRY/H |
Departure
| Time | 2026-05-07 13:17 |
|---|---|
| Airport | Rotterdam The Hague Airport (EHRD) |
Arrival
| Time | 2026-05-07 13:47 |
|---|---|
| Airport | Weeze (Niederrhein) Airport (EDLV) |
| Time | Latitude | Longitude | Altitude | Speed | Heading |
|---|---|---|---|---|---|
| 2026-05-07 12:53 | 51.95103 | 4.43918 | -6 ft | 0 kts | 148° |
| 2026-05-07 13:13 | 51.95103 | 4.43919 | -6 ft | 0 kts | 148° |
| 2026-05-07 13:13 | 51.95054 | 4.43870 | -6 ft | 12 kts | 240° |
| 2026-05-07 13:13 | 51.95035 | 4.43821 | -6 ft | 15 kts | 236° |
| 2026-05-07 13:14 | 51.95033 | 4.43653 | -6 ft | 22 kts | 325° |
| 2026-05-07 13:14 | 51.95150 | 4.43532 | -6 ft | 24 kts | 326° |
| 2026-05-07 13:14 | 51.95231 | 4.43359 | -5 ft | 22 kts | 234° |
| 2026-05-07 13:14 | 51.95162 | 4.43184 | -5 ft | 0 kts | 239° |
| 2026-05-07 13:15 | 51.95133 | 4.43097 | -5 ft | 19 kts | 244° |
| 2026-05-07 13:15 | 51.95120 | 4.43048 | -5 ft | 0 kts | 248° |
| 2026-05-07 13:15 | 51.95117 | 4.43034 | -5 ft | 8 kts | 250° |
| 2026-05-07 13:16 | 51.95181 | 4.42874 | -5 ft | 13 kts | 334° |
| 2026-05-07 13:16 | 51.95260 | 4.42950 | -5 ft | 24 kts | 56° |
| 2026-05-07 13:16 | 51.95530 | 4.43626 | -6 ft | 114 kts | 57° |
| 2026-05-07 13:16 | 51.96074 | 4.44992 | 67 ft | 165 kts | 58° |
| 2026-05-07 13:17 | 51.96645 | 4.46688 | 538 ft | 176 kts | 59° |
| 2026-05-07 13:17 | 51.97271 | 4.48430 | 1093 ft | 185 kts | 59° |
| 2026-05-07 13:17 | 51.97863 | 4.50233 | 1834 ft | 181 kts | 61° |
| 2026-05-07 13:17 | 51.98436 | 4.52019 | 2475 ft | 184 kts | 62° |
| 2026-05-07 13:18 | 51.99025 | 4.53882 | 3119 ft | 189 kts | 62° |
| 2026-05-07 13:18 | 51.99330 | 4.54858 | 3099 ft | 211 kts | 62° |
| 2026-05-07 13:18 | 52.00114 | 4.57123 | 2964 ft | 247 kts | 52° |
| 2026-05-07 13:18 | 52.01545 | 4.58818 | 2971 ft | 268 kts | 25° |
| 2026-05-07 13:19 | 52.03212 | 4.59966 | 3001 ft | 251 kts | 22° |
| 2026-05-07 13:19 | 52.04660 | 4.60990 | 3665 ft | 200 kts | 29° |
| 2026-05-07 13:19 | 52.05585 | 4.62485 | 3707 ft | 180 kts | 57° |
| 2026-05-07 13:19 | 52.06182 | 4.64144 | 3722 ft | 161 kts | 59° |
| 2026-05-07 13:20 | 52.06697 | 4.65624 | 3750 ft | 137 kts | 60° |
| 2026-05-07 13:20 | 52.07151 | 4.66995 | 3811 ft | 147 kts | 63° |
| 2026-05-07 13:20 | 52.07606 | 4.68489 | 4316 ft | 156 kts | 64° |
| 2026-05-07 13:20 | 52.08112 | 4.70136 | 4785 ft | 170 kts | 64° |
| 2026-05-07 13:21 | 52.08670 | 4.71971 | 5158 ft | 188 kts | 64° |
| 2026-05-07 13:21 | 52.09246 | 4.73877 | 5803 ft | 193 kts | 64° |
| 2026-05-07 13:21 | 52.09832 | 4.75829 | 6497 ft | 195 kts | 64° |
| 2026-05-07 13:21 | 52.10420 | 4.77800 | 7152 ft | 198 kts | 64° |
| 2026-05-07 13:22 | 52.11030 | 4.79855 | 7812 ft | 202 kts | 64° |
| 2026-05-07 13:22 | 52.11636 | 4.81904 | 8477 ft | 203 kts | 65° |
| 2026-05-07 13:22 | 52.12241 | 4.83956 | 9052 ft | 207 kts | 65° |
| 2026-05-07 13:22 | 52.12871 | 4.86099 | 9640 ft | 211 kts | 65° |
| 2026-05-07 13:23 | 52.13497 | 4.88233 | 10203 ft | 213 kts | 65° |
| 2026-05-07 13:23 | 52.14135 | 4.90411 | 10816 ft | 215 kts | 65° |
| 2026-05-07 13:23 | 52.14780 | 4.92619 | 11429 ft | 217 kts | 65° |
| 2026-05-07 13:23 | 52.15428 | 4.94837 | 12003 ft | 219 kts | 64° |
| 2026-05-07 13:24 | 52.16086 | 4.97095 | 12568 ft | 221 kts | 64° |
| 2026-05-07 13:24 | 52.16761 | 4.99413 | 12899 ft | 236 kts | 64° |
| 2026-05-07 13:24 | 52.17495 | 5.01929 | 13029 ft | 258 kts | 64° |
| 2026-05-07 13:24 | 52.18304 | 5.04711 | 13070 ft | 281 kts | 64° |
| 2026-05-07 13:25 | 52.19160 | 5.07655 | 13079 ft | 294 kts | 64° |
| 2026-05-07 13:25 | 52.20044 | 5.10696 | 13065 ft | 302 kts | 64° |
| 2026-05-07 13:25 | 52.20948 | 5.13816 | 13055 ft | 305 kts | 64° |
| 2026-05-07 13:25 | 52.21855 | 5.16948 | 13057 ft | 307 kts | 64° |
| 2026-05-07 13:26 | 52.22762 | 5.20087 | 13064 ft | 308 kts | 64° |
| 2026-05-07 13:26 | 52.23677 | 5.23265 | 13065 ft | 310 kts | 64° |
| 2026-05-07 13:26 | 52.24298 | 5.26651 | 13029 ft | 312 kts | 85° |
| 2026-05-07 13:26 | 52.24208 | 5.30156 | 13056 ft | 312 kts | 94° |
| 2026-05-07 13:27 | 52.24030 | 5.33650 | 13051 ft | 313 kts | 94° |
| 2026-05-07 13:27 | 52.23844 | 5.37185 | 13059 ft | 313 kts | 94° |
| 2026-05-07 13:27 | 52.23655 | 5.40758 | 13060 ft | 314 kts | 94° |
| 2026-05-07 13:27 | 52.23468 | 5.44314 | 13054 ft | 315 kts | 94° |
| 2026-05-07 13:28 | 52.23284 | 5.47846 | 13056 ft | 315 kts | 94° |
| 2026-05-07 13:28 | 52.23095 | 5.51380 | 13051 ft | 316 kts | 95° |
| 2026-05-07 13:28 | 52.22593 | 5.54872 | 13055 ft | 316 kts | 109° |
| 2026-05-07 13:28 | 52.21790 | 5.58201 | 13051 ft | 316 kts | 111° |
| 2026-05-07 13:29 | 52.20974 | 5.61518 | 13049 ft | 317 kts | 111° |
| 2026-05-07 13:29 | 52.20152 | 5.64849 | 13044 ft | 317 kts | 111° |
| 2026-05-07 13:29 | 52.19333 | 5.68181 | 13055 ft | 321 kts | 112° |
| 2026-05-07 13:29 | 52.18492 | 5.71595 | 13045 ft | 325 kts | 112° |
| 2026-05-07 13:30 | 52.17654 | 5.75008 | 13058 ft | 329 kts | 112° |
| 2026-05-07 13:30 | 52.16795 | 5.78503 | 13046 ft | 331 kts | 112° |
| 2026-05-07 13:30 | 52.15947 | 5.81956 | 13033 ft | 333 kts | 112° |
| 2026-05-07 13:30 | 52.15078 | 5.85492 | 13046 ft | 334 kts | 111° |
| 2026-05-07 13:31 | 52.14219 | 5.88988 | 13052 ft | 335 kts | 111° |
| 2026-05-07 13:31 | 52.13356 | 5.92495 | 13055 ft | 337 kts | 111° |
| 2026-05-07 13:31 | 52.12474 | 5.96072 | 13051 ft | 338 kts | 111° |
| 2026-05-07 13:31 | 52.11606 | 5.99595 | 13042 ft | 338 kts | 111° |
| 2026-05-07 13:32 | 52.10723 | 6.03170 | 13053 ft | 339 kts | 112° |
| 2026-05-07 13:32 | 52.09843 | 6.06698 | 13050 ft | 339 kts | 112° |
| 2026-05-07 13:32 | 52.08732 | 6.10047 | 13051 ft | 339 kts | 122° |
| 2026-05-07 13:32 | 52.07457 | 6.13285 | 13048 ft | 339 kts | 123° |
| 2026-05-07 13:33 | 52.06182 | 6.16500 | 13045 ft | 340 kts | 123° |
| 2026-05-07 13:33 | 52.04907 | 6.19712 | 13040 ft | 338 kts | 122° |
| 2026-05-07 13:33 | 52.03643 | 6.22904 | 13030 ft | 330 kts | 122° |
| 2026-05-07 13:33 | 52.02420 | 6.25997 | 13027 ft | 324 kts | 122° |
| 2026-05-07 13:34 | 52.01210 | 6.29054 | 13028 ft | 319 kts | 122° |
| 2026-05-07 13:34 | 51.98837 | 6.35045 | 12568 ft | 318 kts | 122° |
| 2026-05-07 13:34 | 51.97643 | 6.38058 | 11934 ft | 324 kts | 122° |
| 2026-05-07 13:35 | 51.96412 | 6.41160 | 11211 ft | 329 kts | 122° |
| 2026-05-07 13:35 | 51.95179 | 6.44262 | 10476 ft | 333 kts | 122° |
| 2026-05-07 13:35 | 51.93947 | 6.47368 | 9719 ft | 325 kts | 122° |
| 2026-05-07 13:35 | 51.92733 | 6.50425 | 8986 ft | 318 kts | 121° |
| 2026-05-07 13:36 | 51.91559 | 6.53375 | 8276 ft | 311 kts | 121° |
| 2026-05-07 13:36 | 51.90312 | 6.56130 | 7608 ft | 304 kts | 133° |
| 2026-05-07 13:36 | 51.88521 | 6.57748 | 7050 ft | 295 kts | 165° |
| 2026-05-07 13:36 | 51.86538 | 6.57837 | 6768 ft | 277 kts | 183° |
| 2026-05-07 13:37 | 51.84685 | 6.57568 | 6531 ft | 259 kts | 184° |
| 2026-05-07 13:37 | 51.83035 | 6.57294 | 6362 ft | 252 kts | 185° |
| 2026-05-07 13:37 | 51.81176 | 6.56958 | 6176 ft | 252 kts | 185° |
| 2026-05-07 13:37 | 51.79739 | 6.56691 | 6027 ft | 251 kts | 186° |
| 2026-05-07 13:38 | 51.78007 | 6.56363 | 5851 ft | 252 kts | 186° |
| 2026-05-07 13:38 | 51.76307 | 6.56035 | 5681 ft | 253 kts | 186° |
| 2026-05-07 13:38 | 51.74533 | 6.55688 | 5498 ft | 254 kts | 186° |
| 2026-05-07 13:38 | 51.72783 | 6.55342 | 5319 ft | 255 kts | 186° |
| 2026-05-07 13:39 | 51.71030 | 6.54878 | 5093 ft | 254 kts | 197° |
| 2026-05-07 13:39 | 51.69659 | 6.53282 | 4980 ft | 238 kts | 236° |
| 2026-05-07 13:39 | 51.68936 | 6.50993 | 4913 ft | 226 kts | 248° |
| 2026-05-07 13:39 | 51.68318 | 6.48697 | 4835 ft | 216 kts | 248° |
| 2026-05-07 13:40 | 51.67738 | 6.46481 | 4782 ft | 218 kts | 249° |
| 2026-05-07 13:40 | 51.66935 | 6.44324 | 4462 ft | 234 kts | 223° |
| 2026-05-07 13:40 | 51.65455 | 6.43253 | 4089 ft | 245 kts | 184° |
| 2026-05-07 13:40 | 51.63849 | 6.43856 | 3683 ft | 234 kts | 144° |
| 2026-05-07 13:41 | 51.62937 | 6.45813 | 3397 ft | 211 kts | 101° |
| 2026-05-07 13:41 | 51.63037 | 6.47993 | 3252 ft | 186 kts | 71° |
| 2026-05-07 13:41 | 51.63167 | 6.49956 | 3061 ft | 176 kts | 104° |
| 2026-05-07 13:41 | 51.62366 | 6.51378 | 2775 ft | 182 kts | 158° |
| 2026-05-07 13:42 | 51.61122 | 6.51235 | 2506 ft | 189 kts | 211° |
| 2026-05-07 13:42 | 51.60348 | 6.49496 | 2361 ft | 207 kts | 257° |
| 2026-05-07 13:42 | 51.60133 | 6.47143 | 2450 ft | 211 kts | 267° |
| 2026-05-07 13:42 | 51.60035 | 6.44763 | 2833 ft | 216 kts | 269° |
| 2026-05-07 13:43 | 51.59986 | 6.42377 | 3252 ft | 211 kts | 271° |
| 2026-05-07 13:43 | 51.59958 | 6.40056 | 3333 ft | 210 kts | 271° |
| 2026-05-07 13:43 | 51.59963 | 6.37730 | 3337 ft | 211 kts | 274° |
| 2026-05-07 13:43 | 51.59955 | 6.35496 | 3265 ft | 188 kts | 268° |
| 2026-05-07 13:44 | 51.59873 | 6.33431 | 2777 ft | 184 kts | 271° |
| 2026-05-07 13:44 | 51.59893 | 6.31377 | 2270 ft | 181 kts | 274° |
| 2026-05-07 13:44 | 51.59917 | 6.29390 | 1776 ft | 179 kts | 274° |
| 2026-05-07 13:44 | 51.59953 | 6.27439 | 1441 ft | 165 kts | 275° |
| 2026-05-07 13:45 | 51.59985 | 6.25738 | 1300 ft | 146 kts | 275° |
| 2026-05-07 13:45 | 51.60030 | 6.24095 | 1118 ft | 146 kts | 276° |
| 2026-05-07 13:45 | 51.60064 | 6.22466 | 930 ft | 146 kts | 275° |
| 2026-05-07 13:45 | 51.60100 | 6.20864 | 730 ft | 140 kts | 274° |
| 2026-05-07 13:46 | 51.60135 | 6.19350 | 555 ft | 134 kts | 276° |
| 2026-05-07 13:46 | 51.60169 | 6.17788 | 389 ft | 145 kts | 275° |
| 2026-05-07 13:46 | 51.60207 | 6.16145 | 177 ft | 149 kts | 274° |
| 2026-05-07 13:46 | 51.60245 | 6.14633 | 109 ft | 107 kts | 270° |
| 2026-05-07 13:47 | 51.60266 | 6.13777 | 100 ft | 60 kts | 270° |
| 2026-05-07 13:47 | 51.60270 | 6.13254 | 99 ft | 23 kts | 269° |
| 2026-05-07 13:47 | 51.60270 | 6.13074 | 99 ft | 14 kts | 272° |
| 2026-05-07 13:47 | 51.60236 | 6.12964 | 100 ft | 11 kts | 192° |
| 2026-05-07 13:48 | 51.60219 | 6.12960 | 100 ft | 0 kts | 185° |
| 2026-05-07 13:48 | 51.60218 | 6.12960 | 100 ft | 1 kts | 185° |
| 2026-05-07 13:48 | 51.60186 | 6.12959 | 100 ft | 7 kts | 180° |
| 2026-05-07 13:49 | 51.60121 | 6.12953 | 100 ft | 11 kts | 183° |
| 2026-05-07 13:49 | 51.60081 | 6.13006 | 100 ft | 9 kts | 89° |
| 2026-05-07 13:49 | 51.60080 | 6.13104 | 99 ft | 11 kts | 93° |
| 2026-05-07 13:49 | 51.60074 | 6.13303 | 99 ft | 18 kts | 90° |
| 2026-05-07 13:50 | 51.60071 | 6.13488 | 99 ft | 14 kts | 92° |
| 2026-05-07 13:50 | 51.60067 | 6.13653 | 100 ft | 15 kts | 89° |
| 2026-05-07 13:50 | 51.60069 | 6.13805 | 101 ft | 14 kts | 94° |
| 2026-05-07 13:50 | 51.60054 | 6.14045 | 103 ft | 22 kts | 91° |
| 2026-05-07 13:51 | 51.60054 | 6.14204 | 105 ft | 0 kts | 91° |